sensor_id;sensor_type;location;lat;lon;timestamp;temperature;humidity
9179;DHT22;4624;48.126;11.546;2022-11-20T00:00:06;6.40;99.90
9179;DHT22;4624;48.126;11.546;2022-11-20T00:02:34;6.50;99.90
9179;DHT22;4624;48.126;11.546;2022-11-20T00:05:01;6.40;99.90
9179;DHT22;4624;48.126;11.546;2022-11-20T00:07:27;6.40;99.90
9179;DHT22;4624;48.126;11.546;2022-11-20T00:09:54;6.50;99.90
9179;DHT22;4624;48.126;11.546;2022-11-20T00:12:21;6.40;99.90
9179;DHT22;4624;48.126;11.546;2022-11-20T00:14:48;6.50;99.90
9179;DHT22;4624;48.126;11.546;2022-11-20T00:17:14;6.50;99.90
9179;DHT22;4624;48.126;11.546;2022-11-20T00:19:42;6.50;99.90
9179;DHT22;4624;48.126;11.546;2022-11-20T00:22:09;6.50;99.90
9179;DHT22;4624;48.126;11.546;2022-11-20T00:24:36;6.60;99.90
9179;DHT22;4624;48.126;11.546;2022-11-20T00:27:03;6.60;99.90
9179;DHT22;4624;48.126;11.546;2022-11-20T00:29:29;6.60;99.90
9179;DHT22;4624;48.126;11.546;2022-11-20T00:31:56;6.60;99.90
9179;DHT22;4624;48.126;11.546;2022-11-20T00:34:23;6.60;99.90
9179;DHT22;4624;48.126;11.546;2022-11-20T00:36:51;6.60;99.90
9179;DHT22;4624;48.126;11.546;2022-11-20T00:39:17;6.60;99.90
9179;DHT22;4624;48.126;11.546;2022-11-20T00:41:44;6.60;99.90
9179;DHT22;4624;48.126;11.546;2022-11-20T00:44:11;6.60;99.90
9179;DHT22;4624;48.126;11.546;2022-11-20T00:46:38;6.60;99.90
9179;DHT22;4624;48.126;11.546;2022-11-20T00:49:04;6.60;99.90
9179;DHT22;4624;48.126;11.546;2022-11-20T00:51:31;6.60;99.90
9179;DHT22;4624;48.126;11.546;2022-11-20T00:53:59;6.60;99.90
9179;DHT22;4624;48.126;11.546;2022-11-20T00:56:27;6.60;99.90
9179;DHT22;4624;48.126;11.546;2022-11-20T00:58:54;6.60;99.90
9179;DHT22;4624;48.126;11.546;2022-11-20T01:01:23;6.60;99.90
9179;DHT22;4624;48.126;11.546;2022-11-20T01:03:52;6.60;99.90
9179;DHT22;4624;48.126;11.546;2022-11-20T01:06:21;6.60;99.90
9179;DHT22;4624;48.126;11.546;2022-11-20T01:08:48;6.60;99.90
9179;DHT22;4624;48.126;11.546;2022-11-20T01:11:19;6.50;99.90
9179;DHT22;4624;48.126;11.546;2022-11-20T01:13:47;6.50;99.90
9179;DHT22;4624;48.126;11.546;2022-11-20T01:16:15;6.50;99.90
9179;DHT22;4624;48.126;11.546;2022-11-20T01:18:44;6.50;99.90
9179;DHT22;4624;48.126;11.546;2022-11-20T01:21:12;6.50;99.90
9179;DHT22;4624;48.126;11.546;2022-11-20T01:23:41;6.40;99.90
9179;DHT22;4624;48.126;11.546;2022-11-20T01:26:10;6.50;99.90
9179;DHT22;4624;48.126;11.546;2022-11-20T01:28:38;6.50;99.90
9179;DHT22;4624;48.126;11.546;2022-11-20T01:31:11;6.50;99.90
9179;DHT22;4624;48.126;11.546;2022-11-20T01:33:39;6.40;99.90
9179;DHT22;4624;48.126;11.546;2022-11-20T01:36:07;6.40;99.90
9179;DHT22;4624;48.126;11.546;2022-11-20T01:38:34;6.40;99.90
9179;DHT22;4624;48.126;11.546;2022-11-20T01:41:01;6.40;99.90
9179;DHT22;4624;48.126;11.546;2022-11-20T01:43:28;6.40;99.90
9179;DHT22;4624;48.126;11.546;2022-11-20T01:46:05;6.40;99.90
9179;DHT22;4624;48.126;11.546;2022-11-20T01:48:36;6.40;99.90
9179;DHT22;4624;48.126;11.546;2022-11-20T01:51:07;6.40;99.90
9179;DHT22;4624;48.126;11.546;2022-11-20T01:53:37;6.40;99.90
9179;DHT22;4624;48.126;11.546;2022-11-20T01:56:06;6.50;99.90
9179;DHT22;4624;48.126;11.546;2022-11-20T01:58:38;6.50;99.90
9179;DHT22;4624;48.126;11.546;2022-11-20T02:01:07;6.50;99.90
9179;DHT22;4624;48.126;11.546;2022-11-20T02:03:35;6.40;99.90
9179;DHT22;4624;48.126;11.546;2022-11-20T02:06:06;6.40;99.90
9179;DHT22;4624;48.126;11.546;2022-11-20T02:08:35;6.40;99.90
9179;DHT22;4624;48.126;11.546;2022-11-20T02:11:02;6.40;99.90
9179;DHT22;4624;48.126;11.546;2022-11-20T02:13:29;6.40;99.90
9179;DHT22;4624;48.126;11.546;2022-11-20T02:16:20;6.40;99.90
9179;DHT22;4624;48.126;11.546;2022-11-20T02:18:48;6.30;99.90
9179;DHT22;4624;48.126;11.546;2022-11-20T02:21:25;6.40;99.90
9179;DHT22;4624;48.126;11.546;2022-11-20T02:24:02;6.40;99.90
9179;DHT22;4624;48.126;11.546;2022-11-20T02:26:31;6.30;99.90
9179;DHT22;4624;48.126;11.546;2022-11-20T02:28:59;6.40;99.90
9179;DHT22;4624;48.126;11.546;2022-11-20T02:31:26;6.30;99.90
9179;DHT22;4624;48.126;11.546;2022-11-20T02:33:57;6.30;99.90
9179;DHT22;4624;48.126;11.546;2022-11-20T02:36:26;6.30;99.90
9179;DHT22;4624;48.126;11.546;2022-11-20T02:38:54;6.30;99.90
9179;DHT22;4624;48.126;11.546;2022-11-20T02:41:30;6.30;99.90
9179;DHT22;4624;48.126;11.546;2022-11-20T02:43:57;6.30;99.90
9179;DHT22;4624;48.126;11.546;2022-11-20T02:46:24;6.30;99.90
9179;DHT22;4624;48.126;11.546;2022-11-20T02:48:50;6.30;99.90
9179;DHT22;4624;48.126;11.546;2022-11-20T02:51:17;6.30;99.90
9179;DHT22;4624;48.126;11.546;2022-11-20T02:53:44;6.30;99.90
9179;DHT22;4624;48.126;11.546;2022-11-20T02:56:11;6.30;99.90
9179;DHT22;4624;48.126;11.546;2022-11-20T02:58:39;6.30;99.90
9179;DHT22;4624;48.126;11.546;2022-11-20T03:01:06;6.30;99.90
9179;DHT22;4624;48.126;11.546;2022-11-20T03:03:32;6.30;99.90
9179;DHT22;4624;48.126;11.546;2022-11-20T03:05:59;6.30;99.90
9179;DHT22;4624;48.126;11.546;2022-11-20T03:08:26;6.30;99.90
9179;DHT22;4624;48.126;11.546;2022-11-20T03:10:53;6.30;99.90
9179;DHT22;4624;48.126;11.546;2022-11-20T03:13:20;6.30;99.90
9179;DHT22;4624;48.126;11.546;2022-11-20T03:15:48;6.30;99.90
9179;DHT22;4624;48.126;11.546;2022-11-20T03:18:15;6.30;99.90
9179;DHT22;4624;48.126;11.546;2022-11-20T03:20:42;6.30;99.90
9179;DHT22;4624;48.126;11.546;2022-11-20T03:23:08;6.30;99.90
9179;DHT22;4624;48.126;11.546;2022-11-20T03:25:35;6.30;99.90
9179;DHT22;4624;48.126;11.546;2022-11-20T03:28:02;6.30;99.90
9179;DHT22;4624;48.126;11.546;2022-11-20T03:30:29;6.30;99.90
9179;DHT22;4624;48.126;11.546;2022-11-20T03:32:57;6.30;99.90
9179;DHT22;4624;48.126;11.546;2022-11-20T03:35:24;6.30;99.90
9179;DHT22;4624;48.126;11.546;2022-11-20T03:37:51;6.30;99.90
9179;DHT22;4624;48.126;11.546;2022-11-20T03:40:17;6.30;99.90
9179;DHT22;4624;48.126;11.546;2022-11-20T03:42:44;6.30;99.90
9179;DHT22;4624;48.126;11.546;2022-11-20T03:45:11;6.30;99.90
9179;DHT22;4624;48.126;11.546;2022-11-20T03:47:38;6.30;99.90
9179;DHT22;4624;48.126;11.546;2022-11-20T03:50:07;6.30;99.90
9179;DHT22;4624;48.126;11.546;2022-11-20T03:52:35;6.30;99.90
9179;DHT22;4624;48.126;11.546;2022-11-20T03:55:01;6.30;99.90
9179;DHT22;4624;48.126;11.546;2022-11-20T03:57:28;6.30;99.90
9179;DHT22;4624;48.126;11.546;2022-11-20T03:59:55;6.30;99.90
9179;DHT22;4624;48.126;11.546;2022-11-20T04:02:22;6.20;99.90
9179;DHT22;4624;48.126;11.546;2022-11-20T04:04:48;6.20;99.90
9179;DHT22;4624;48.126;11.546;2022-11-20T04:07:16;6.20;99.90
9179;DHT22;4624;48.126;11.546;2022-11-20T04:09:43;6.20;99.90
9179;DHT22;4624;48.126;11.546;2022-11-20T04:12:10;6.20;99.90
9179;DHT22;4624;48.126;11.546;2022-11-20T04:14:37;6.20;99.90
9179;DHT22;4624;48.126;11.546;2022-11-20T04:17:04;6.20;99.90
9179;DHT22;4624;48.126;11.546;2022-11-20T04:19:31;6.20;99.90
9179;DHT22;4624;48.126;11.546;2022-11-20T04:21:57;6.20;99.90
9179;DHT22;4624;48.126;11.546;2022-11-20T04:24:26;6.20;99.90
9179;DHT22;4624;48.126;11.546;2022-11-20T04:26:53;6.20;99.90
9179;DHT22;4624;48.126;11.546;2022-11-20T04:29:19;6.20;99.90
9179;DHT22;4624;48.126;11.546;2022-11-20T04:31:46;6.20;99.90
9179;DHT22;4624;48.126;11.546;2022-11-20T04:34:13;6.20;99.90
9179;DHT22;4624;48.126;11.546;2022-11-20T04:36:40;6.20;99.90
9179;DHT22;4624;48.126;11.546;2022-11-20T04:39:13;6.20;99.90
9179;DHT22;4624;48.126;11.546;2022-11-20T04:41:42;6.30;99.90
9179;DHT22;4624;48.126;11.546;2022-11-20T04:44:09;6.20;99.90
9179;DHT22;4624;48.126;11.546;2022-11-20T04:46:37;6.20;99.90
9179;DHT22;4624;48.126;11.546;2022-11-20T04:49:05;6.20;99.90
9179;DHT22;4624;48.126;11.546;2022-11-20T04:51:32;6.20;99.90
9179;DHT22;4624;48.126;11.546;2022-11-20T04:53:59;6.20;99.90
9179;DHT22;4624;48.126;11.546;2022-11-20T04:56:26;6.10;99.90
9179;DHT22;4624;48.126;11.546;2022-11-20T04:58:55;6.10;99.90
9179;DHT22;4624;48.126;11.546;2022-11-20T05:01:23;6.10;99.90
9179;DHT22;4624;48.126;11.546;2022-11-20T05:03:50;6.10;99.90
9179;DHT22;4624;48.126;11.546;2022-11-20T05:06:19;6.10;99.90
9179;DHT22;4624;48.126;11.546;2022-11-20T05:08:46;6.10;99.90
9179;DHT22;4624;48.126;11.546;2022-11-20T05:11:14;6.10;99.90
9179;DHT22;4624;48.126;11.546;2022-11-20T05:13:42;6.10;99.90
9179;DHT22;4624;48.126;11.546;2022-11-20T05:16:11;6.10;99.90
9179;DHT22;4624;48.126;11.546;2022-11-20T05:18:39;6.10;99.90
9179;DHT22;4624;48.126;11.546;2022-11-20T05:21:06;6.10;99.90
9179;DHT22;4624;48.126;11.546;2022-11-20T05:23:34;6.10;99.90
9179;DHT22;4624;48.126;11.546;2022-11-20T05:26:02;6.10;99.90
9179;DHT22;4624;48.126;11.546;2022-11-20T05:28:30;6.10;99.90
9179;DHT22;4624;48.126;11.546;2022-11-20T05:31:04;6.10;99.90
9179;DHT22;4624;48.126;11.546;2022-11-20T05:33:32;6.10;99.90
9179;DHT22;4624;48.126;11.546;2022-11-20T05:35:59;6.10;99.90
9179;DHT22;4624;48.126;11.546;2022-11-20T05:38:26;6.10;99.90
9179;DHT22;4624;48.126;11.546;2022-11-20T05:40:53;6.10;99.90
9179;DHT22;4624;48.126;11.546;2022-11-20T05:43:19;6.10;99.90
9179;DHT22;4624;48.126;11.546;2022-11-20T05:45:52;6.10;99.90
9179;DHT22;4624;48.126;11.546;2022-11-20T05:48:19;6.10;99.90
9179;DHT22;4624;48.126;11.546;2022-11-20T05:50:47;6.10;99.90
9179;DHT22;4624;48.126;11.546;2022-11-20T05:53:14;6.10;99.90
9179;DHT22;4624;48.126;11.546;2022-11-20T05:55:41;6.00;99.90
9179;DHT22;4624;48.126;11.546;2022-11-20T05:58:08;6.00;99.90
9179;DHT22;4624;48.126;11.546;2022-11-20T06:00:35;6.00;99.90
9179;DHT22;4624;48.126;11.546;2022-11-20T06:03:02;6.00;99.90
9179;DHT22;4624;48.126;11.546;2022-11-20T06:05:29;6.00;99.90
9179;DHT22;4624;48.126;11.546;2022-11-20T06:07:57;6.00;99.90
9179;DHT22;4624;48.126;11.546;2022-11-20T06:10:23;6.00;99.90
9179;DHT22;4624;48.126;11.546;2022-11-20T06:12:50;5.90;99.90
9179;DHT22;4624;48.126;11.546;2022-11-20T06:15:17;6.00;99.90
9179;DHT22;4624;48.126;11.546;2022-11-20T06:17:44;5.90;99.90
9179;DHT22;4624;48.126;11.546;2022-11-20T06:20:11;5.90;99.90
9179;DHT22;4624;48.126;11.546;2022-11-20T06:22:37;5.90;99.90
9179;DHT22;4624;48.126;11.546;2022-11-20T06:25:06;5.90;99.90
9179;DHT22;4624;48.126;11.546;2022-11-20T06:27:33;5.90;99.90
9179;DHT22;4624;48.126;11.546;2022-11-20T06:29:59;5.80;99.90
9179;DHT22;4624;48.126;11.546;2022-11-20T06:32:26;5.80;99.90
9179;DHT22;4624;48.126;11.546;2022-11-20T06:34:53;5.80;99.90
9179;DHT22;4624;48.126;11.546;2022-11-20T06:37:20;5.70;99.90
9179;DHT22;4624;48.126;11.546;2022-11-20T06:39:46;5.70;99.90
9179;DHT22;4624;48.126;11.546;2022-11-20T06:42:14;5.70;99.90
9179;DHT22;4624;48.126;11.546;2022-11-20T06:44:41;5.70;99.90
9179;DHT22;4624;48.126;11.546;2022-11-20T06:47:08;5.70;99.90
9179;DHT22;4624;48.126;11.546;2022-11-20T06:49:34;5.70;99.90
9179;DHT22;4624;48.126;11.546;2022-11-20T06:52:03;5.70;99.90
9179;DHT22;4624;48.126;11.546;2022-11-20T06:54:30;5.70;99.90
9179;DHT22;4624;48.126;11.546;2022-11-20T06:56:57;5.70;99.90
9179;DHT22;4624;48.126;11.546;2022-11-20T06:59:25;5.70;99.90
9179;DHT22;4624;48.126;11.546;2022-11-20T07:01:52;5.80;99.90
9179;DHT22;4624;48.126;11.546;2022-11-20T07:04:18;5.80;99.90
9179;DHT22;4624;48.126;11.546;2022-11-20T07:06:45;5.80;99.90
9179;DHT22;4624;48.126;11.546;2022-11-20T07:09:12;5.90;99.90
9179;DHT22;4624;48.126;11.546;2022-11-20T07:11:39;6.10;99.90
9179;DHT22;4624;48.126;11.546;2022-11-20T07:14:05;6.40;99.90
9179;DHT22;4624;48.126;11.546;2022-11-20T07:16:33;6.80;99.90
9179;DHT22;4624;48.126;11.546;2022-11-20T07:19:00;7.00;99.90
9179;DHT22;4624;48.126;11.546;2022-11-20T07:21:27;7.00;99.80
9179;DHT22;4624;48.126;11.546;2022-11-20T07:23:53;6.90;99.30
9179;DHT22;4624;48.126;11.546;2022-11-20T07:26:20;6.70;99.30
9179;DHT22;4624;48.126;11.546;2022-11-20T07:28:47;6.60;99.30
9179;DHT22;4624;48.126;11.546;2022-11-20T07:31:14;6.40;99.30
9179;DHT22;4624;48.126;11.546;2022-11-20T07:33:42;6.30;99.50
9179;DHT22;4624;48.126;11.546;2022-11-20T07:36:08;6.30;99.70
9179;DHT22;4624;48.126;11.546;2022-11-20T07:38:37;6.20;99.70
9179;DHT22;4624;48.126;11.546;2022-11-20T07:41:04;6.20;99.90
9179;DHT22;4624;48.126;11.546;2022-11-20T07:43:31;6.10;99.90
9179;DHT22;4624;48.126;11.546;2022-11-20T07:45:58;6.10;99.90
9179;DHT22;4624;48.126;11.546;2022-11-20T07:48:25;6.10;99.90
9179;DHT22;4624;48.126;11.546;2022-11-20T07:50:54;6.10;99.90
9179;DHT22;4624;48.126;11.546;2022-11-20T07:53:21;6.20;99.90
9179;DHT22;4624;48.126;11.546;2022-11-20T07:55:48;6.10;99.90
9179;DHT22;4624;48.126;11.546;2022-11-20T07:58:17;6.10;99.90
9179;DHT22;4624;48.126;11.546;2022-11-20T08:00:44;6.10;99.90
9179;DHT22;4624;48.126;11.546;2022-11-20T08:03:11;6.10;99.90
9179;DHT22;4624;48.126;11.546;2022-11-20T08:05:38;6.10;99.90
9179;DHT22;4624;48.126;11.546;2022-11-20T08:08:06;6.10;99.90
9179;DHT22;4624;48.126;11.546;2022-11-20T08:10:33;6.20;99.90
9179;DHT22;4624;48.126;11.546;2022-11-20T08:13:00;6.20;99.90
9179;DHT22;4624;48.126;11.546;2022-11-20T08:15:48;6.30;99.90
9179;DHT22;4624;48.126;11.546;2022-11-20T08:18:16;6.30;99.90
9179;DHT22;4624;48.126;11.546;2022-11-20T08:20:43;6.40;99.90
9179;DHT22;4624;48.126;11.546;2022-11-20T08:23:12;6.40;99.90
9179;DHT22;4624;48.126;11.546;2022-11-20T08:25:39;6.40;99.80
9179;DHT22;4624;48.126;11.546;2022-11-20T08:28:07;6.40;99.80
9179;DHT22;4624;48.126;11.546;2022-11-20T08:30:35;6.50;99.90
9179;DHT22;4624;48.126;11.546;2022-11-20T08:33:03;6.50;99.80
9179;DHT22;4624;48.126;11.546;2022-11-20T08:35:33;6.50;99.70
9179;DHT22;4624;48.126;11.546;2022-11-20T08:38:01;6.50;99.40
9179;DHT22;4624;48.126;11.546;2022-11-20T08:40:29;6.60;99.40
9179;DHT22;4624;48.126;11.546;2022-11-20T08:42:56;6.60;99.40
9179;DHT22;4624;48.126;11.546;2022-11-20T08:45:23;6.70;99.40
9179;DHT22;4624;48.126;11.546;2022-11-20T08:47:50;6.70;99.30
9179;DHT22;4624;48.126;11.546;2022-11-20T08:50:17;6.80;99.20
9179;DHT22;4624;48.126;11.546;2022-11-20T08:52:44;6.80;99.10
9179;DHT22;4624;48.126;11.546;2022-11-20T08:55:11;6.80;99.00
9179;DHT22;4624;48.126;11.546;2022-11-20T08:57:40;6.90;98.80
9179;DHT22;4624;48.126;11.546;2022-11-20T09:00:07;6.90;98.70
9179;DHT22;4624;48.126;11.546;2022-11-20T09:02:34;6.90;98.80
9179;DHT22;4624;48.126;11.546;2022-11-20T09:05:01;6.90;98.70
9179;DHT22;4624;48.126;11.546;2022-11-20T09:07:29;7.00;98.60
9179;DHT22;4624;48.126;11.546;2022-11-20T09:09:56;7.00;98.40
9179;DHT22;4624;48.126;11.546;2022-11-20T09:12:23;7.00;98.30
9179;DHT22;4624;48.126;11.546;2022-11-20T09:14:51;7.00;98.20
9179;DHT22;4624;48.126;11.546;2022-11-20T09:17:18;6.90;98.10
9179;DHT22;4624;48.126;11.546;2022-11-20T09:19:46;6.90;98.10
9179;DHT22;4624;48.126;11.546;2022-11-20T09:22:13;7.00;98.20
9179;DHT22;4624;48.126;11.546;2022-11-20T09:24:39;7.10;98.20
9179;DHT22;4624;48.126;11.546;2022-11-20T09:27:07;7.10;98.10
9179;DHT22;4624;48.126;11.546;2022-11-20T09:29:33;7.20;98.10
9179;DHT22;4624;48.126;11.546;2022-11-20T09:32:02;7.20;97.80
9179;DHT22;4624;48.126;11.546;2022-11-20T09:34:28;7.30;97.50
9179;DHT22;4624;48.126;11.546;2022-11-20T09:36:55;7.30;97.20
9179;DHT22;4624;48.126;11.546;2022-11-20T09:39:22;7.30;96.90
9179;DHT22;4624;48.126;11.546;2022-11-20T09:42:19;7.40;96.80
9179;DHT22;4624;48.126;11.546;2022-11-20T09:45:08;7.40;96.80
9179;DHT22;4624;48.126;11.546;2022-11-20T09:47:49;7.50;96.50
9179;DHT22;4624;48.126;11.546;2022-11-20T09:50:26;7.50;96.50
9179;DHT22;4624;48.126;11.546;2022-11-20T09:53:04;7.50;96.40
9179;DHT22;4624;48.126;11.546;2022-11-20T09:55:36;7.50;96.50
9179;DHT22;4624;48.126;11.546;2022-11-20T09:58:06;7.60;96.40
9179;DHT22;4624;48.126;11.546;2022-11-20T10:00:34;7.60;96.10
9179;DHT22;4624;48.126;11.546;2022-11-20T10:03:10;8.30;96.10
9179;DHT22;4624;48.126;11.546;2022-11-20T10:05:43;11.10;94.50
9179;DHT22;4624;48.126;11.546;2022-11-20T10:08:16;12.30;91.30
9179;DHT22;4624;48.126;11.546;2022-11-20T10:10:45;11.70;90.10
9179;DHT22;4624;48.126;11.546;2022-11-20T10:13:20;11.90;89.90
9179;DHT22;4624;48.126;11.546;2022-11-20T10:15:58;11.80;88.90
9179;DHT22;4624;48.126;11.546;2022-11-20T10:18:40;12.10;88.40
9179;DHT22;4624;48.126;11.546;2022-11-20T10:21:14;12.30;85.60
9179;DHT22;4624;48.126;11.546;2022-11-20T10:24:00;12.40;83.80
9179;DHT22;4624;48.126;11.546;2022-11-20T10:26:35;11.90;83.00
9179;DHT22;4624;48.126;11.546;2022-11-20T10:29:11;11.50;83.00
9179;DHT22;4624;48.126;11.546;2022-11-20T10:31:40;11.50;84.30
9179;DHT22;4624;48.126;11.546;2022-11-20T10:34:18;11.30;84.10
9179;DHT22;4624;48.126;11.546;2022-11-20T10:36:50;11.00;85.20
9179;DHT22;4624;48.126;11.546;2022-11-20T10:39:25;10.60;85.40
9179;DHT22;4624;48.126;11.546;2022-11-20T10:41:56;10.30;85.50
9179;DHT22;4624;48.126;11.546;2022-11-20T10:44:26;9.90;87.10
9179;DHT22;4624;48.126;11.546;2022-11-20T10:47:14;9.70;87.90
9179;DHT22;4624;48.126;11.546;2022-11-20T10:49:43;9.50;88.60
9179;DHT22;4624;48.126;11.546;2022-11-20T10:52:18;9.70;88.80
9179;DHT22;4624;48.126;11.546;2022-11-20T10:54:51;9.70;88.40
9179;DHT22;4624;48.126;11.546;2022-11-20T10:57:27;9.50;88.40
9179;DHT22;4624;48.126;11.546;2022-11-20T11:00:02;9.40;89.10
9179;DHT22;4624;48.126;11.546;2022-11-20T11:02:39;9.20;90.00
9179;DHT22;4624;48.126;11.546;2022-11-20T11:05:18;9.10;90.20
9179;DHT22;4624;48.126;11.546;2022-11-20T11:07:50;9.10;90.40
9179;DHT22;4624;48.126;11.546;2022-11-20T11:10:20;9.00;90.50
9179;DHT22;4624;48.126;11.546;2022-11-20T11:12:48;8.90;90.70
9179;DHT22;4624;48.126;11.546;2022-11-20T11:15:25;8.80;90.90
9179;DHT22;4624;48.126;11.546;2022-11-20T11:17:54;8.70;91.10
9179;DHT22;4624;48.126;11.546;2022-11-20T11:20:23;8.60;91.30
9179;DHT22;4624;48.126;11.546;2022-11-20T11:22:52;8.70;91.40
9179;DHT22;4624;48.126;11.546;2022-11-20T11:25:23;8.70;91.30
9179;DHT22;4624;48.126;11.546;2022-11-20T11:27:51;8.80;91.40
9179;DHT22;4624;48.126;11.546;2022-11-20T11:30:21;8.90;91.40
9179;DHT22;4624;48.126;11.546;2022-11-20T11:32:48;8.80;91.40
9179;DHT22;4624;48.126;11.546;2022-11-20T11:35:25;8.80;91.50
9179;DHT22;4624;48.126;11.546;2022-11-20T11:38:02;8.80;91.60
9179;DHT22;4624;48.126;11.546;2022-11-20T11:40:31;9.00;91.60
9179;DHT22;4624;48.126;11.546;2022-11-20T11:43:01;9.10;91.40
9179;DHT22;4624;48.126;11.546;2022-11-20T11:45:28;9.10;91.40
9179;DHT22;4624;48.126;11.546;2022-11-20T11:47:56;9.00;91.50
9179;DHT22;4624;48.126;11.546;2022-11-20T11:50:26;9.40;91.40
9179;DHT22;4624;48.126;11.546;2022-11-20T11:53:02;10.00;90.20
9179;DHT22;4624;48.126;11.546;2022-11-20T11:55:35;9.90;90.50
9179;DHT22;4624;48.126;11.546;2022-11-20T11:58:11;9.80;90.60
9179;DHT22;4624;48.126;11.546;2022-11-20T12:00:40;9.60;90.20
9179;DHT22;4624;48.126;11.546;2022-11-20T12:03:13;9.80;90.30
9179;DHT22;4624;48.126;11.546;2022-11-20T12:05:44;9.70;90.10
9179;DHT22;4624;48.126;11.546;2022-11-20T12:08:16;9.50;90.10
9179;DHT22;4624;48.126;11.546;2022-11-20T12:10:48;9.20;90.20
9179;DHT22;4624;48.126;11.546;2022-11-20T12:13:34;9.00;90.60
9179;DHT22;4624;48.126;11.546;2022-11-20T12:16:04;8.90;91.20
9179;DHT22;4624;48.126;11.546;2022-11-20T12:18:31;8.70;92.20
9179;DHT22;4624;48.126;11.546;2022-11-20T12:21:10;8.50;92.50
9179;DHT22;4624;48.126;11.546;2022-11-20T12:23:47;8.40;92.80
9179;DHT22;4624;48.126;11.546;2022-11-20T12:26:22;8.30;93.00
9179;DHT22;4624;48.126;11.546;2022-11-20T12:29:02;8.30;93.20
9179;DHT22;4624;48.126;11.546;2022-11-20T12:31:52;8.20;93.50
9179;DHT22;4624;48.126;11.546;2022-11-20T12:34:32;8.00;93.70
9179;DHT22;4624;48.126;11.546;2022-11-20T12:37:10;7.80;94.20
9179;DHT22;4624;48.126;11.546;2022-11-20T12:39:41;7.80;94.60
9179;DHT22;4624;48.126;11.546;2022-11-20T12:42:25;7.70;94.90
9179;DHT22;4624;48.126;11.546;2022-11-20T12:51:51;7.60;95.50
9179;DHT22;4624;48.126;11.546;2022-11-20T12:57:31;7.50;95.80
9179;DHT22;4624;48.126;11.546;2022-11-20T13:00:15;7.50;96.00
9179;DHT22;4624;48.126;11.546;2022-11-20T13:03:22;7.50;96.10
9179;DHT22;4624;48.126;11.546;2022-11-20T13:05:58;7.40;96.20
9179;DHT22;4624;48.126;11.546;2022-11-20T13:08:28;7.40;96.40
9179;DHT22;4624;48.126;11.546;2022-11-20T13:11:01;7.30;96.50
9179;DHT22;4624;48.126;11.546;2022-11-20T13:13:43;7.40;96.70
9179;DHT22;4624;48.126;11.546;2022-11-20T13:16:17;7.40;96.70
9179;DHT22;4624;48.126;11.546;2022-11-20T13:18:45;7.40;96.90
9179;DHT22;4624;48.126;11.546;2022-11-20T13:21:16;7.40;97.00
9179;DHT22;4624;48.126;11.546;2022-11-20T13:23:44;7.40;97.20
9179;DHT22;4624;48.126;11.546;2022-11-20T13:26:17;7.40;97.30
9179;DHT22;4624;48.126;11.546;2022-11-20T13:28:48;7.30;97.40
9179;DHT22;4624;48.126;11.546;2022-11-20T13:31:33;7.30;97.70
9179;DHT22;4624;48.126;11.546;2022-11-20T13:34:03;7.30;97.90
9179;DHT22;4624;48.126;11.546;2022-11-20T13:36:30;7.20;98.00
9179;DHT22;4624;48.126;11.546;2022-11-20T13:38:58;7.20;98.50
9179;DHT22;4624;48.126;11.546;2022-11-20T13:41:26;7.10;98.20
9179;DHT22;4624;48.126;11.546;2022-11-20T13:44:09;7.10;98.20
9179;DHT22;4624;48.126;11.546;2022-11-20T13:46:38;7.10;98.40
9179;DHT22;4624;48.126;11.546;2022-11-20T13:49:14;7.10;98.50
9179;DHT22;4624;48.126;11.546;2022-11-20T13:51:43;7.20;98.50
9179;DHT22;4624;48.126;11.546;2022-11-20T13:54:52;7.20;98.50
9179;DHT22;4624;48.126;11.546;2022-11-20T14:00:22;7.30;98.50
9179;DHT22;4624;48.126;11.546;2022-11-20T14:02:59;7.40;98.50
9179;DHT22;4624;48.126;11.546;2022-11-20T14:05:30;7.40;98.50
9179;DHT22;4624;48.126;11.546;2022-11-20T14:07:58;7.40;98.50
9179;DHT22;4624;48.126;11.546;2022-11-20T14:10:27;7.40;98.50
9179;DHT22;4624;48.126;11.546;2022-11-20T14:12:54;7.40;98.50
9179;DHT22;4624;48.126;11.546;2022-11-20T14:15:28;7.40;98.40
9179;DHT22;4624;48.126;11.546;2022-11-20T14:17:55;7.50;98.50
9179;DHT22;4624;48.126;11.546;2022-11-20T14:20:24;7.50;98.50
9179;DHT22;4624;48.126;11.546;2022-11-20T14:22:53;7.50;98.30
9179;DHT22;4624;48.126;11.546;2022-11-20T14:25:21;7.50;98.20
9179;DHT22;4624;48.126;11.546;2022-11-20T14:27:53;7.50;98.00
9179;DHT22;4624;48.126;11.546;2022-11-20T14:30:22;7.50;98.00
9179;DHT22;4624;48.126;11.546;2022-11-20T14:32:53;7.50;97.90
9179;DHT22;4624;48.126;11.546;2022-11-20T14:35:23;7.50;97.90
9179;DHT22;4624;48.126;11.546;2022-11-20T14:37:51;7.50;97.90
9179;DHT22;4624;48.126;11.546;2022-11-20T14:40:28;7.40;97.70
9179;DHT22;4624;48.126;11.546;2022-11-20T14:42:55;7.40;97.80
9179;DHT22;4624;48.126;11.546;2022-11-20T14:45:23;7.40;97.80
9179;DHT22;4624;48.126;11.546;2022-11-20T14:47:52;7.40;97.80
9179;DHT22;4624;48.126;11.546;2022-11-20T14:50:22;7.40;97.80
9179;DHT22;4624;48.126;11.546;2022-11-20T14:52:56;7.40;97.80
9179;DHT22;4624;48.126;11.546;2022-11-20T14:55:28;7.40;97.80
9179;DHT22;4624;48.126;11.546;2022-11-20T14:57:57;7.40;97.80
9179;DHT22;4624;48.126;11.546;2022-11-20T15:00:25;7.40;97.70
9179;DHT22;4624;48.126;11.546;2022-11-20T15:02:53;7.40;97.60
9179;DHT22;4624;48.126;11.546;2022-11-20T15:05:21;7.40;97.50
9179;DHT22;4624;48.126;11.546;2022-11-20T15:07:51;7.30;97.40
9179;DHT22;4624;48.126;11.546;2022-11-20T15:10:23;7.30;97.40
9179;DHT22;4624;48.126;11.546;2022-11-20T15:12:51;7.30;97.30
9179;DHT22;4624;48.126;11.546;2022-11-20T15:15:21;7.30;97.30
9179;DHT22;4624;48.126;11.546;2022-11-20T15:17:50;7.30;97.20
9179;DHT22;4624;48.126;11.546;2022-11-20T15:20:18;7.30;97.30
9179;DHT22;4624;48.126;11.546;2022-11-20T15:22:45;7.20;97.20
9179;DHT22;4624;48.126;11.546;2022-11-20T15:25:12;7.20;97.20
9179;DHT22;4624;48.126;11.546;2022-11-20T15:27:40;7.20;97.30
9179;DHT22;4624;48.126;11.546;2022-11-20T15:30:13;7.20;97.30
9179;DHT22;4624;48.126;11.546;2022-11-20T15:32:40;7.20;97.30
9179;DHT22;4624;48.126;11.546;2022-11-20T15:35:08;7.20;97.30
9179;DHT22;4624;48.126;11.546;2022-11-20T15:37:36;7.20;97.30
9179;DHT22;4624;48.126;11.546;2022-11-20T15:40:04;7.10;97.30
9179;DHT22;4624;48.126;11.546;2022-11-20T15:42:32;7.10;97.40
9179;DHT22;4624;48.126;11.546;2022-11-20T15:44:59;7.10;97.30
9179;DHT22;4624;48.126;11.546;2022-11-20T15:47:27;7.10;97.40
9179;DHT22;4624;48.126;11.546;2022-11-20T15:49:55;7.00;97.40
9179;DHT22;4624;48.126;11.546;2022-11-20T15:52:22;7.00;97.40
9179;DHT22;4624;48.126;11.546;2022-11-20T15:54:50;6.90;97.40
9179;DHT22;4624;48.126;11.546;2022-11-20T15:57:17;6.90;97.50
9179;DHT22;4624;48.126;11.546;2022-11-20T15:59:44;6.80;97.50
9179;DHT22;4624;48.126;11.546;2022-11-20T16:02:11;6.80;97.50
9179;DHT22;4624;48.126;11.546;2022-11-20T16:04:39;6.70;97.60
9179;DHT22;4624;48.126;11.546;2022-11-20T16:07:05;6.70;97.70
9179;DHT22;4624;48.126;11.546;2022-11-20T16:09:32;6.70;97.80
9179;DHT22;4624;48.126;11.546;2022-11-20T16:12:00;6.60;97.90
9179;DHT22;4624;48.126;11.546;2022-11-20T16:14:27;6.60;97.90
9179;DHT22;4624;48.126;11.546;2022-11-20T16:17:12;6.60;98.00
9179;DHT22;4624;48.126;11.546;2022-11-20T16:19:38;6.60;98.00
9179;DHT22;4624;48.126;11.546;2022-11-20T16:22:05;6.50;98.00
9179;DHT22;4624;48.126;11.546;2022-11-20T16:24:32;6.50;98.10
9179;DHT22;4624;48.126;11.546;2022-11-20T16:27:00;6.50;98.20
9179;DHT22;4624;48.126;11.546;2022-11-20T16:29:28;6.40;98.30